AirNav   Pilot Hours Calculator
 
 979 users online  

3NK7 B/G Heliport
Gilboa/Grand Gorge, New York, USA

GOING TO GILBOA/GRAND GORGE?


FAA INFORMATION EFFECTIVE 25 MARCH 2021

Location

FAA Identifier: 3NK7
Lat/Long: 42-25-29.2860N 074-27-03.5280W
42-25.488100N 074-27.058800W
42.4248017,-74.4509800
(estimated)
Elevation: 1100 ft. / 335 m (estimated)
Variation: 13W (1985)
From city: 5 miles NE of central business district of the associated city
Time zone: UTC -4 (UTC -5 during Standard Time)
Zip code: 12076

Heliport Operations

Heliport use: Private use. Permission required prior to landing
Activation date: 01/1988
Control tower: no
ARTCC: BOSTON CENTER
FSS: BUFFALO FLIGHT SERVICE STATION
Attendance: CONTINUOUS
Wind indicator: yes
Segmented circle: yes

Nearby radio navigation aids

VOR radial/distance  VOR name  Freq  Var
DNYr068/26.9DELANCEY VOR/DME112.1011W
ALBr249/34.5ALBANY VORTAC115.3013W
RKAr105/35.0ROCKDALE VOR/DME112.6011W

 
NDB name  Hdg/Dist  Freq  Var  ID
PHILMONT301/33.927213WPFH .--. ..-. ....
HUNTER236/34.435614WHEU .... . ..-
JOHNSTOWN203/34.952314WJJH .--- .--- ....

Heliport Services

Runway Information

Helipad H1

Dimensions: 40 x 40 ft. / 12 x 12 m
Surface: asphalt
Traffic pattern: leftleft

Heliport Ownership and Management from official FAA records

Ownership: Publicly-owned
Owner: NEW YORK POWER AUTHORITY
397 POWER PLANT ACCESS ROAD
GILBOA, NY 12076
Phone (518) 287-6000
Manager: BRIAN SAEZ
397 POWER PLANT ACCESS ROAD
GILBOA, NY 12076
Phone (518) 287-6000

Additional Remarks

FOR CD CTC ALBANY APCH AT 518-862-2299.

Instrument Procedures

There are no published instrument procedures at 3NK7.

Some nearby airports with instrument procedures:

N66 - Albert S Nader Regional Airport (28 nm W)
4B0 - South Albany Airport (28 nm E)
1B1 - Columbia County Airport (34 nm E)
20N - Kingston-Ulster Airport (34 nm SE)
KSCH - Schenectady County Airport (34 nm NE)
 
Loc | Ops | Rwys | IFR | FBO | Links
Com | Nav | Svcs | Stats | Notes
Area around 3NK7 (B/G Heliport)
 
Road maps at: MapQuest Bing Google
 
Aerial photo
No photo
 
Sectional chart

 
Airport distance calculator
Flying to B/G Heliport? Find the distance to fly.

From to 3NK7

Sunrise and sunset
Times for 11-Apr-2021
 Local
(UTC-4)
 Zulu
(UTC)
Morning civil twilight05:5509:55
Sunrise06:2410:24
Sunset19:3323:33
Evening civil twilight20:0200:02

Current date and time
Zulu (UTC)  12-Apr-2021 01:29:44
Local (UTC-4)  11-Apr-2021 21:29:44
 
METAR
KSCH 
35nm NE 
112349Z 00000KT 15SM BKN075 OVC085 13/09 A2967
KALB 
35nm NE 
120051Z 18008KT 10SM -RA BKN085 OVC100 10/07 A2968 RMK AO2 RAE2352B44 SLP052 P0000 T01000072
KNY0 
35nm N 
120115Z AUTO 15006KT 10SM SCT016 SCT040 OVC085 10/09 A2968 RMK AO2
KMSV 
46nm S 
120112Z AUTO 09014G17KT 8SM OVC004 09/09 A2963 RMK AO2 RAE04 CIG 003V008 P0001 $
TAF
KALB 
35nm NE 
112222Z 1122/1218 12008KT 6SM -SHRA BR BKN035 OVC070 FM120000 11007KT 5SM -SHRA BR OVC025 FM120800 10007KT P6SM VCSH SCT025 OVC040
NOTAMs
Click for the latest NOTAMs
NOTAMs are issued by the DoD/FAA and will open in a separate window not controlled by AirNav.

 

 
 

Would you like to see your business listed on this page?

 If your business provides an interesting product or service to pilots, flight crews, aircraft, or users of the B/G Heliport, you should consider listing it here.  To start the listing process, click on the button below
 
Add a business
 

Other Pages about B/G Heliport

Update a link
 
Copyright © AirNav, LLC. All rights reserved. Privacy Policy  Contact